Time;durP1;ratioP1;P1;durP2;ratioP2;P2;SDS_P1;SDS_P2;PMS_P1;PMS_P2;Temp;Humidity;BMP_temperature;BMP_pressure;BME280_temperature;BME280_humidity;BME280_pressure;Samples;Min_cycle;Max_cycle;Signal;HPM_P1;HPM_P2
2021/09/20 00:01:47;;;;;;;4.57;2.38;;;;;;;12.07;100.00;101053.31;6373888;23;19998;-78
2021/09/20 00:04:18;;;;;;;3.92;1.92;;;;;;;12.06;100.00;101045.50;6372859;23;20350;-78
2021/09/20 00:06:48;;;;;;;3.78;2.13;;;;;;;12.11;100.00;101039.19;6372682;23;20012;-78
2021/09/20 00:09:18;;;;;;;6.22;1.70;;;;;;;12.07;100.00;101047.19;6373854;23;20013;-78
2021/09/20 00:11:49;;;;;;;3.22;1.75;;;;;;;12.17;100.00;101043.38;6372790;23;20434;-78
2021/09/20 00:14:19;;;;;;;4.00;1.90;;;;;;;12.10;100.00;101042.72;6373094;23;20001;-78
2021/09/20 00:16:50;;;;;;;3.35;1.95;;;;;;;12.12;100.00;101046.13;6373648;23;20449;-78
2021/09/20 00:19:20;;;;;;;3.00;1.67;;;;;;;12.06;100.00;101050.72;6374148;23;20370;-78
2021/09/20 00:21:50;;;;;;;4.82;1.92;;;;;;;12.10;100.00;101052.34;6336826;23;20052;-78
2021/09/20 00:24:22;;;;;;;4.70;1.90;;;;;;;12.05;100.00;101054.25;6373086;23;20342;-78
2021/09/20 00:26:52;;;;;;;4.80;2.00;;;;;;;12.04;100.00;101056.03;6374473;23;20059;-78
2021/09/20 00:29:22;;;;;;;3.67;1.90;;;;;;;12.05;100.00;101055.13;6367525;23;20423;-78
2021/09/20 00:31:52;;;;;;;5.97;2.13;;;;;;;12.03;100.00;101051.72;6373012;23;19998;-78
2021/09/20 00:34:23;;;;;;;4.30;1.92;;;;;;;11.97;100.00;101051.06;6385742;23;20037;-78
2021/09/20 00:36:53;;;;;;;3.00;1.90;;;;;;;12.04;100.00;101056.03;6373708;23;20546;-78
2021/09/20 00:39:23;;;;;;;4.32;1.90;;;;;;;11.98;100.00;101058.84;6374078;23;20005;-78
2021/09/20 00:41:54;;;;;;;3.38;1.42;;;;;;;11.98;100.00;101053.59;6375348;23;19998;-78
2021/09/20 00:44:24;;;;;;;3.10;1.75;;;;;;;12.04;100.00;101048.19;6388931;23;20002;-79
2021/09/20 00:46:55;;;;;;;4.57;1.95;;;;;;;11.99;100.00;101055.31;6375434;23;20011;-78
2021/09/20 00:49:25;;;;;;;2.90;1.63;;;;;;;12.07;100.00;101053.31;6388654;23;20080;-78
2021/09/20 00:51:55;;;;;;;2.88;1.63;;;;;;;12.09;100.00;101051.50;6375561;23;20287;-78
2021/09/20 00:54:26;;;;;;;4.22;1.75;;;;;;;11.94;100.00;101057.25;6374455;23;20022;-78
2021/09/20 00:56:56;;;;;;;4.20;1.70;;;;;;;11.94;100.00;101059.84;6376006;23;19997;-78
2021/09/20 00:59:27;;;;;;;3.53;1.65;;;;;;;11.96;100.00;101060.66;6339000;23;20341;-78
2021/09/20 01:01:58;;;;;;;2.80;1.50;;;;;;;11.95;100.00;101061.56;6375900;23;19993;-78
2021/09/20 01:04:28;;;;;;;3.72;1.60;;;;;;;11.95;100.00;101058.94;6374409;23;20010;-78
2021/09/20 01:06:58;;;;;;;2.63;1.30;;;;;;;11.91;100.00;101067.81;6376101;23;20374;-79
2021/09/20 01:09:29;;;;;;;4.07;1.63;;;;;;;12.00;100.00;101054.44;6376066;23;20032;-78
2021/09/20 01:11:59;;;;;;;3.13;1.85;;;;;;;11.95;100.00;101058.94;6375318;23;20005;-78
2021/09/20 01:14:29;;;;;;;3.97;1.65;;;;;;;12.04;100.00;101063.03;6387681;23;20016;-78
2021/09/20 01:17:00;;;;;;;2.33;1.42;;;;;;;11.94;100.00;101062.47;6339023;23;20013;-78
2021/09/20 01:19:31;;;;;;;3.97;1.55;;;;;;;12.00;100.00;101066.66;6376147;23;20048;-78
2021/09/20 01:22:09;;;;;;;2.75;1.58;;;;;;;11.89;100.00;101063.53;6375688;23;20046;-79
2021/09/20 01:24:39;;;;;;;6.25;1.60;;;;;;;11.94;100.00;101072.97;6377933;23;20009;-79
2021/09/20 01:27:11;;;;;;;2.05;1.40;;;;;;;11.91;100.00;101066.94;6379222;23;20021;-79
2021/09/20 01:29:41;;;;;;;5.70;1.60;;;;;;;11.88;100.00;101070.56;6342606;23;20076;-79
2021/09/20 01:32:12;;;;;;;2.95;1.40;;;;;;;11.88;100.00;101067.94;6391202;23;20044;-79
2021/09/20 01:34:43;;;;;;;2.60;1.60;;;;;;;11.89;100.00;101072.25;6378130;23;20125;-79
2021/09/20 01:37:14;;;;;;;2.60;1.38;;;;;;;11.93;100.00;101067.78;6378036;23;20242;-79
2021/09/20 01:39:44;;;;;;;2.85;1.38;;;;;;;11.88;100.00;101073.16;6377183;23;20069;-79
2021/09/20 01:42:14;;;;;;;3.85;1.58;;;;;;;11.92;100.00;101077.41;6378511;23;20017;-79
2021/09/20 01:44:44;;;;;;;2.38;1.50;;;;;;;11.90;100.00;101080.97;6391199;23;20002;-80
2021/09/20 01:47:15;;;;;;;2.83;1.40;;;;;;;11.80;100.00;101082.19;6379384;23;20044;-79
2021/09/20 01:49:45;;;;;;;3.03;1.17;;;;;;;11.83;100.00;101085.56;6379141;23;20011;-79
2021/09/20 01:52:15;;;;;;;1.92;1.20;;;;;;;11.91;100.00;101086.16;6340353;23;20033;-79
2021/09/20 01:54:46;;;;;;;2.10;1.20;;;;;;;11.78;100.00;101079.59;6378963;23;20001;-80
2021/09/20 01:57:17;;;;;;;2.83;1.45;;;;;;;11.78;100.00;101081.38;6390804;23;20088;-79
2021/09/20 01:59:47;;;;;;;3.78;1.27;;;;;;;11.93;100.00;101080.88;6342643;23;20005;-80
2021/09/20 02:02:18;;;;;;;3.00;1.38;;;;;;;11.78;100.00;101087.47;6390972;23;20322;-80
2021/09/20 02:04:48;;;;;;;2.85;1.40;;;;;;;11.80;100.00;101092.66;6376752;23;20009;-79
2021/09/20 02:07:18;;;;;;;2.22;1.20;;;;;;;11.77;100.00;101088.38;6378918;23;20009;-80
2021/09/20 02:09:49;;;;;;;4.68;1.30;;;;;;;11.75;100.00;101086.72;6377223;23;20510;-80
2021/09/20 02:12:19;;;;;;;4.20;1.55;;;;;;;11.76;100.00;101084.03;6339447;23;20005;-79
2021/09/20 02:14:49;;;;;;;4.82;1.15;;;;;;;11.86;100.00;101080.22;6375563;23;20002;-79
2021/09/20 02:17:20;;;;;;;4.03;1.50;;;;;;;11.84;100.00;101075.94;6389026;23;20010;-79
2021/09/20 02:19:50;;;;;;;2.47;1.38;;;;;;;11.77;100.00;101079.66;6376323;23;20005;-79
2021/09/20 02:22:20;;;;;;;4.05;1.85;;;;;;;11.80;100.00;101090.03;6375537;23;20001;-79
2021/09/20 02:24:51;;;;;;;2.55;1.50;;;;;;;11.82;100.00;101086.44;6339476;23;20644;-79
2021/09/20 02:27:22;;;;;;;3.58;1.35;;;;;;;11.71;100.00;101091.19;6389354;23;20008;-79
2021/09/20 02:29:52;;;;;;;3.05;1.20;;;;;;;11.71;100.00;101091.19;6339737;23;20092;-79
2021/09/20 02:32:22;;;;;;;3.72;1.40;;;;;;;11.80;100.00;101096.13;6376352;23;20049;-79
2021/09/20 02:34:53;;;;;;;2.35;1.30;;;;;;;11.68;100.00;101096.53;6375458;23;20001;-79
2021/09/20 02:37:23;;;;;;;2.45;1.17;;;;;;;11.76;100.00;101093.66;6376792;23;20001;-80
2021/09/20 02:39:53;;;;;;;3.65;1.60;;;;;;;11.74;100.00;101093.72;6376408;23;20059;-79
2021/09/20 02:42:24;;;;;;;2.50;1.30;;;;;;;11.90;100.00;101102.78;6376919;23;20053;-80
2021/09/20 02:44:54;;;;;;;3.40;1.42;;;;;;;11.84;100.00;101105.63;6339802;23;20037;-79
2021/09/20 02:47:24;;;;;;;3.78;1.27;;;;;;;11.72;100.00;101098.13;6377951;23;20001;-79
2021/09/20 02:49:55;;;;;;;3.03;1.27;;;;;;;11.80;100.00;101105.75;6389450;23;20008;-79
2021/09/20 02:52:25;;;;;;;2.90;1.25;;;;;;;11.92;100.00;101105.38;6376121;23;19997;-79
2021/09/20 02:54:55;;;;;;;3.50;1.10;;;;;;;11.87;100.00;101108.13;6376691;23;20001;-79
2021/09/20 02:57:26;;;;;;;4.43;1.40;;;;;;;11.94;100.00;101104.38;6389035;23;20017;-79
2021/09/20 02:59:56;;;;;;;2.00;1.10;;;;;;;11.95;100.00;101107.88;6340346;23;20025;-79
2021/09/20 03:02:26;;;;;;;3.22;1.30;;;;;;;11.86;100.00;101111.66;6388417;23;20008;-79
2021/09/20 03:04:57;;;;;;;3.65;1.42;;;;;;;11.84;100.00;101109.97;6375912;23;20671;-80
2021/09/20 03:07:27;;;;;;;2.47;1.30;;;;;;;11.79;100.00;101112.75;6389070;23;20028;-79
2021/09/20 03:09:58;;;;;;;3.37;1.40;;;;;;;11.77;100.00;101109.31;6328651;23;1096897;-79
2021/09/20 03:12:28;;;;;;;3.35;1.30;;;;;;;11.69;100.00;101111.34;6340825;23;20005;-80
2021/09/20 03:14:58;;;;;;;2.22;1.20;;;;;;;11.72;100.00;101112.97;6340562;23;20025;-80
2021/09/20 03:17:29;;;;;;;4.55;1.40;;;;;;;11.69;100.00;101119.19;6341238;23;20062;-79
2021/09/20 03:20:00;;;;;;;3.65;1.23;;;;;;;11.84;100.00;101118.72;6340584;23;20098;-79
2021/09/20 03:22:30;;;;;;;4.40;1.50;;;;;;;11.75;100.00;101121.59;6377651;23;20004;-79
2021/09/20 03:25:00;;;;;;;2.55;1.13;;;;;;;11.75;100.00;101128.63;6377105;23;20085;-79
2021/09/20 03:27:31;;;;;;;2.10;1.40;;;;;;;11.80;100.00;101130.16;6390307;23;20001;-79
2021/09/20 03:30:03;;;;;;;2.88;1.27;;;;;;;11.77;100.00;101132.03;6340846;23;20438;-79
2021/09/20 03:32:34;;;;;;;2.80;1.60;;;;;;;11.80;100.00;101126.72;6340118;23;20001;-79
2021/09/20 03:35:06;;;;;;;3.55;1.55;;;;;;;11.71;100.00;101137.44;6377400;23;20054;-79
2021/09/20 03:37:36;;;;;;;2.88;1.20;;;;;;;11.85;100.00;101133.50;6341180;23;20005;-80
2021/09/20 03:40:07;;;;;;;4.00;1.23;;;;;;;11.90;100.00;101135.97;6341086;23;20008;-79
2021/09/20 03:42:37;;;;;;;2.95;1.30;;;;;;;11.91;100.00;101138.53;6340327;23;20001;-80
2021/09/20 03:45:09;;;;;;;2.33;1.45;;;;;;;12.09;100.00;101140.56;6377086;23;20013;-80
2021/09/20 03:47:39;;;;;;;2.17;1.30;;;;;;;12.29;100.00;101138.16;6367446;23;20421;-79
2021/09/20 03:50:11;;;;;;;2.97;1.30;;;;;;;12.23;100.00;101134.88;6341464;23;20005;-80
2021/09/20 03:52:42;;;;;;;3.15;1.48;;;;;;;12.06;100.00;101140.69;6341372;23;20013;-80
2021/09/20 03:55:13;;;;;;;2.70;1.45;;;;;;;12.04;100.00;101141.63;6376788;23;20006;-79
2021/09/20 03:57:44;;;;;;;3.38;1.50;;;;;;;11.84;100.00;101137.03;6341873;23;20005;-80
2021/09/20 04:00:15;;;;;;;2.25;1.40;;;;;;;11.98;100.00;101134.81;6341213;23;20308;-80
2021/09/20 04:02:48;;;;;;;4.00;1.65;;;;;;;11.97;100.00;101134.88;6375424;23;20002;-79
2021/09/20 04:05:19;;;;;;;2.55;1.45;;;;;;;12.03;100.00;101134.66;6339796;23;20246;-81
2021/09/20 04:07:49;;;;;;;2.25;1.30;;;;;;;12.03;100.00;101139.91;6375739;23;20005;-80
2021/09/20 04:10:19;;;;;;;2.55;1.27;;;;;;;11.95;100.00;101142.78;6377564;23;20037;-81
2021/09/20 04:12:49;;;;;;;2.35;1.25;;;;;;;11.98;100.00;101142.66;6339709;23;20120;-81
2021/09/20 04:15:20;;;;;;;3.50;1.33;;;;;;;12.00;100.00;101138.28;6377713;23;20016;-81
2021/09/20 04:17:51;;;;;;;2.72;1.55;;;;;;;12.06;100.00;101145.91;6343333;23;20008;-80
2021/09/20 04:20:21;;;;;;;2.55;1.50;;;;;;;11.94;100.00;101148.91;6342516;23;20010;-79
2021/09/20 04:22:51;;;;;;;4.70;1.42;;;;;;;12.10;100.00;101142.28;6379940;23;19994;-80
2021/09/20 04:25:21;;;;;;;2.30;1.40;;;;;;;11.78;100.00;101142.44;6380426;23;19997;-80
2021/09/20 04:27:52;;;;;;;2.70;1.40;;;;;;;11.75;100.00;101145.19;6393037;23;20021;-80
2021/09/20 04:30:22;;;;;;;2.47;1.35;;;;;;;11.87;100.00;101149.16;6379982;23;20006;-80
2021/09/20 04:32:52;;;;;;;3.28;1.38;;;;;;;11.94;100.00;101148.91;6391710;23;20047;-80
2021/09/20 04:35:23;;;;;;;2.47;1.40;;;;;;;11.79;100.00;101149.41;6378847;23;20004;-81
2021/09/20 04:37:53;;;;;;;2.95;1.48;;;;;;;11.84;100.00;101152.75;6378018;23;20101;-81
2021/09/20 04:40:23;;;;;;;2.47;1.30;;;;;;;12.00;100.00;101158.34;6344117;23;20164;-80
2021/09/20 04:42:53;;;;;;;3.60;1.45;;;;;;;12.04;100.00;101157.34;6378746;23;20044;-81
2021/09/20 04:45:24;;;;;;;2.50;1.30;;;;;;;12.08;100.00;101161.56;6392643;23;20040;-80
2021/09/20 04:47:54;;;;;;;5.22;1.52;;;;;;;12.21;100.00;101171.63;6379769;23;20415;-81
2021/09/20 04:50:24;;;;;;;3.22;1.20;;;;;;;12.10;100.00;101173.72;6378638;23;20032;-81
2021/09/20 04:52:55;;;;;;;2.90;1.27;;;;;;;11.88;100.00;101175.31;6343033;23;20044;-81
2021/09/20 04:55:25;;;;;;;3.05;1.40;;;;;;;11.86;100.00;101177.13;6341986;23;20073;-80
2021/09/20 04:57:55;;;;;;;3.65;1.60;;;;;;;11.71;100.00;101174.97;6343256;23;20076;-81
2021/09/20 05:00:26;;;;;;;3.00;1.30;;;;;;;12.10;100.00;101176.34;6379614;23;20001;-80
2021/09/20 05:02:56;;;;;;;5.05;1.70;;;;;;;11.92;100.00;101173.47;6392694;23;20084;-80
2021/09/20 05:05:26;;;;;;;4.32;1.60;;;;;;;11.79;100.00;101178.22;6379156;23;20001;-80
2021/09/20 05:07:57;;;;;;;4.57;1.58;;;;;;;11.82;100.00;101172.88;6342437;23;20006;-80
2021/09/20 05:10:27;;;;;;;3.55;1.52;;;;;;;11.77;100.00;101182.63;6342275;23;20005;-81
2021/09/20 05:12:57;;;;;;;3.15;1.70;;;;;;;11.59;100.00;101177.97;6391500;23;20006;-81
2021/09/20 05:15:28;;;;;;;3.70;1.58;;;;;;;11.74;100.00;101174.00;6379665;23;20028;-80
2021/09/20 05:17:58;;;;;;;3.65;1.58;;;;;;;11.76;100.00;101185.31;6379712;23;20500;-81
2021/09/20 05:20:28;;;;;;;4.03;1.38;;;;;;;11.77;100.00;101190.50;6379143;23;20009;-80
2021/09/20 05:22:59;;;;;;;4.57;1.40;;;;;;;11.77;100.00;101189.66;6378963;23;20008;-81
2021/09/20 05:25:29;;;;;;;3.30;1.50;;;;;;;11.67;100.00;101194.31;6341646;23;20013;-81
2021/09/20 05:28:00;;;;;;;2.55;1.30;;;;;;;12.04;100.00;101189.66;6391580;23;20060;-80
2021/09/20 05:30:31;;;;;;;3.42;1.33;;;;;;;12.22;100.00;101188.19;6378480;23;20390;-80
2021/09/20 05:33:01;;;;;;;2.75;1.35;;;;;;;12.25;100.00;101191.56;6391981;23;20009;-81
2021/09/20 05:35:32;;;;;;;2.45;1.55;;;;;;;12.13;100.00;101199.81;6377973;23;20008;-81
2021/09/20 05:38:02;;;;;;;3.50;1.50;;;;;;;12.03;100.00;101201.03;6379644;23;20450;-80
2021/09/20 05:40:33;;;;;;;3.72;1.40;;;;;;;11.87;100.00;101201.53;6342105;23;20005;-80
2021/09/20 05:43:04;;;;;;;2.58;1.48;;;;;;;11.95;100.00;101203.03;6392343;23;19997;-80
2021/09/20 05:45:34;;;;;;;2.92;1.67;;;;;;;11.85;100.00;101200.75;6342440;23;20052;-81
2021/09/20 05:48:05;;;;;;;3.00;1.70;;;;;;;11.84;100.00;101205.13;6380273;23;20037;-81
2021/09/20 05:50:35;;;;;;;3.53;1.80;;;;;;;11.82;100.00;101199.06;6379870;23;20447;-79
2021/09/20 05:53:06;;;;;;;3.00;1.58;;;;;;;11.78;100.00;101217.56;6379224;23;20084;-81
2021/09/20 05:55:36;;;;;;;2.90;1.60;;;;;;;11.72;100.00;101202.88;6378617;23;20452;-81
2021/09/20 05:58:06;;;;;;;4.68;1.50;;;;;;;11.63;100.00;101208.38;6391643;23;20013;-81
2021/09/20 06:00:37;;;;;;;3.53;1.42;;;;;;;11.80;100.00;101215.75;6343450;23;20005;-81
2021/09/20 06:03:08;;;;;;;3.45;1.80;;;;;;;11.65;100.00;101214.41;6380099;23;20495;-80
2021/09/20 06:05:38;;;;;;;3.40;1.55;;;;;;;11.75;100.00;101212.41;6392531;23;20006;-81
2021/09/20 06:08:09;;;;;;;3.83;1.65;;;;;;;11.74;100.00;101208.06;6392145;23;20063;-81
2021/09/20 06:11:15;;;;;;;4.32;1.88;;;;;;;11.85;100.00;101216.44;6377929;23;20450;-81
2021/09/20 06:13:45;;;;;;;5.03;1.70;;;;;;;12.08;100.00;101221.84;6342764;23;20010;-81
2021/09/20 06:16:16;;;;;;;3.97;1.70;;;;;;;11.91;100.00;101230.22;6379718;23;20033;-81
2021/09/20 06:18:46;;;;;;;3.83;1.38;;;;;;;11.78;100.00;101228.88;6391801;23;20014;-81
2021/09/20 06:21:17;;;;;;;2.83;1.48;;;;;;;11.88;100.00;101225.09;6378900;23;20008;-80
2021/09/20 06:23:47;;;;;;;4.18;1.70;;;;;;;11.98;100.00;101231.75;6379012;23;20101;-81
2021/09/20 06:26:17;;;;;;;4.05;1.58;;;;;;;11.90;100.00;101228.50;6381129;23;20033;-81
2021/09/20 06:28:47;;;;;;;3.38;1.90;;;;;;;12.07;100.00;101225.34;6393371;23;20105;-81
2021/09/20 06:31:18;;;;;;;4.50;1.88;;;;;;;12.00;100.00;101236.94;6379007;23;20042;-81
2021/09/20 06:33:49;;;;;;;2.92;1.40;;;;;;;12.11;100.00;101238.31;6380810;23;20091;-80
2021/09/20 06:36:19;;;;;;;3.30;1.45;;;;;;;11.97;100.00;101240.50;6381078;23;20084;-80
2021/09/20 06:38:49;;;;;;;3.00;1.70;;;;;;;11.98;100.00;101234.34;6391454;23;20104;-81
2021/09/20 06:41:20;;;;;;;3.92;1.75;;;;;;;12.13;100.00;101235.66;6378892;23;20049;-81
2021/09/20 06:43:50;;;;;;;3.03;1.60;;;;;;;12.06;100.00;101231.50;6390969;23;20028;-81
2021/09/20 06:46:20;;;;;;;3.10;1.70;;;;;;;12.20;100.00;101232.81;6392344;23;20134;-81
2021/09/20 06:48:51;;;;;;;3.30;1.65;;;;;;;11.95;100.00;101236.25;6378535;23;20005;-81
2021/09/20 06:51:21;;;;;;;4.00;1.67;;;;;;;12.20;100.00;101232.81;6378295;23;20057;-81
2021/09/20 06:53:51;;;;;;;4.63;1.80;;;;;;;12.07;100.00;101230.59;6391169;23;20608;-81
2021/09/20 06:56:22;;;;;;;7.85;1.70;;;;;;;12.06;100.00;101235.00;6342243;23;20012;-80
2021/09/20 06:58:52;;;;;;;3.72;1.75;;;;;;;12.08;100.00;101233.19;6379177;23;19998;-81
2021/09/20 07:01:23;;;;;;;3.28;1.73;;;;;;;12.20;100.00;101232.81;6393162;23;19994;-81
2021/09/20 07:03:53;;;;;;;3.88;1.75;;;;;;;12.23;100.00;101227.47;6378635;23;20002;-81
2021/09/20 07:06:23;;;;;;;3.40;1.70;;;;;;;12.24;100.00;101234.41;6379259;23;20073;-81
2021/09/20 07:08:54;;;;;;;4.25;1.80;;;;;;;12.32;100.00;101235.03;6378658;23;20008;-80
2021/09/20 07:11:25;;;;;;;4.18;1.77;;;;;;;12.20;100.00;101231.94;6378603;23;20005;-81
2021/09/20 07:13:55;;;;;;;4.63;1.55;;;;;;;12.67;100.00;101226.00;6377286;23;20002;-81
2021/09/20 07:16:26;;;;;;;3.08;1.60;;;;;;;12.75;100.00;101227.47;6378284;23;20071;-80
2021/09/20 07:18:56;;;;;;;4.15;1.75;;;;;;;12.69;100.00;101232.94;6342471;23;20040;-80
2021/09/20 07:21:27;;;;;;;3.88;1.70;;;;;;;12.94;99.82;101223.31;6378492;23;20005;-81
2021/09/20 07:23:58;;;;;;;2.35;1.33;;;;;;;13.11;99.58;101228.84;6378072;23;20507;-80
2021/09/20 07:26:30;;;;;;;3.20;1.67;;;;;;;12.84;100.00;101232.38;6377238;23;20010;-80
2021/09/20 07:29:01;;;;;;;2.70;1.55;;;;;;;13.15;98.09;101228.69;6377248;23;20029;-79
2021/09/20 07:31:31;;;;;;;2.58;1.50;;;;;;;13.43;97.99;101239.03;6376731;23;20445;-79
2021/09/20 07:34:02;;;;;;;2.63;1.35;;;;;;;13.17;99.67;101236.50;6374951;23;20398;-80
2021/09/20 07:36:32;;;;;;;3.38;1.63;;;;;;;13.27;97.89;101243.97;6375812;23;20282;-80
2021/09/20 07:39:03;;;;;;;2.72;1.40;;;;;;;13.30;98.60;101238.63;6375750;23;20006;-79
2021/09/20 07:41:36;;;;;;;2.88;1.40;;;;;;;13.40;98.83;101244.41;6375888;23;19998;-80
2021/09/20 07:44:07;;;;;;;2.75;1.40;;;;;;;13.47;100.00;101244.13;6339351;23;20346;-79
2021/09/20 07:46:37;;;;;;;3.30;1.75;;;;;;;13.64;97.68;101246.13;6376993;23;20009;-79
2021/09/20 07:49:07;;;;;;;3.17;1.60;;;;;;;13.88;96.30;101240.81;6376859;23;20016;-79
2021/09/20 07:51:38;;;;;;;2.30;1.42;;;;;;;14.19;100.00;101245.75;6340111;23;20040;-80
2021/09/20 07:54:08;;;;;;;3.05;1.50;;;;;;;14.02;95.32;101250.78;6375535;23;20013;-80
2021/09/20 07:56:38;;;;;;;2.58;1.55;;;;;;;14.12;93.69;101252.97;6377266;23;20056;-80
2021/09/20 07:59:09;;;;;;;3.90;1.63;;;;;;;13.85;94.70;101259.31;6389886;23;20351;-80
2021/09/20 08:01:39;;;;;;;2.75;1.30;;;;;;;13.54;96.85;101260.53;6389729;23;20011;-80
2021/09/20 08:04:11;;;;;;;3.58;1.58;;;;;;;13.69;96.56;101260.81;6376082;23;20006;-80
2021/09/20 08:06:41;;;;;;;2.65;1.40;;;;;;;13.87;96.68;101252.22;6376401;23;20009;-80
2021/09/20 08:09:11;;;;;;;3.13;1.42;;;;;;;14.09;94.53;101257.53;6377020;23;20513;-80
2021/09/20 08:11:42;;;;;;;2.40;1.50;;;;;;;13.31;96.99;101257.84;6376576;23;20088;-80
2021/09/20 08:14:12;;;;;;;5.57;1.58;;;;;;;13.22;97.40;101273.94;6376886;23;20012;-80
2021/09/20 08:16:42;;;;;;;3.78;1.48;;;;;;;13.69;94.90;101262.56;6376853;23;20024;-81
2021/09/20 08:19:13;;;;;;;3.53;1.65;;;;;;;13.40;95.29;101270.69;6376999;23;20057;-81
2021/09/20 08:21:43;;;;;;;2.70;1.73;;;;;;;13.36;94.42;101269.03;6391193;23;20229;-80
2021/09/20 08:24:14;;;;;;;2.97;1.63;;;;;;;13.65;93.93;101268.84;6383523;23;20015;-80
2021/09/20 08:26:44;;;;;;;3.95;1.70;;;;;;;13.81;92.03;101278.75;6376781;23;19998;-80
2021/09/20 08:29:14;;;;;;;2.72;1.60;;;;;;;13.47;94.68;101273.03;6340583;23;20010;-80
2021/09/20 08:31:45;;;;;;;5.60;1.60;;;;;;;13.67;93.74;101274.91;6389066;23;20400;-80
2021/09/20 08:34:15;;;;;;;3.67;1.50;;;;;;;13.81;91.78;101278.75;6375445;23;20075;-80
2021/09/20 08:36:45;;;;;;;3.25;1.52;;;;;;;14.03;89.31;101278.78;6339808;23;20009;-80
2021/09/20 08:39:15;;;;;;;3.20;1.63;;;;;;;13.86;90.16;101287.31;6376295;23;20010;-80
2021/09/20 08:41:46;;;;;;;4.57;1.70;;;;;;;13.86;90.87;101287.31;6375865;23;20338;-81
2021/09/20 08:44:18;;;;;;;3.20;1.50;;;;;;;13.95;88.68;101286.09;6376065;23;20006;-80
2021/09/20 08:46:50;;;;;;;2.70;1.33;;;;;;;14.16;89.07;101282.69;6375546;23;20098;-80
2021/09/20 08:49:23;;;;;;;4.30;1.58;;;;;;;14.04;90.96;101281.34;6339187;23;20349;-80
2021/09/20 08:51:57;;;;;;;4.63;1.42;;;;;;;13.97;88.05;101295.66;6376256;23;20080;-81
2021/09/20 08:54:28;;;;;;;3.67;1.58;;;;;;;13.67;89.00;101290.66;6375310;23;20021;-80
2021/09/20 08:56:58;;;;;;;2.75;1.23;;;;;;;13.80;89.80;101298.06;6375953;23;20405;-80
2021/09/20 08:59:28;;;;;;;4.95;1.42;;;;;;;13.80;89.25;101295.44;6376242;23;20020;-80
2021/09/20 09:01:59;;;;;;;2.95;1.67;;;;;;;13.83;90.25;101299.69;6377066;23;20482;-80
2021/09/20 09:04:32;;;;;;;3.95;1.63;;;;;;;13.87;89.37;101296.03;6378233;23;20005;-80
2021/09/20 09:07:18;;;;;;;3.05;1.60;;;;;;;14.16;87.99;101295.81;6378230;23;20053;-80
2021/09/20 09:09:50;;;;;;;2.97;1.60;;;;;;;14.22;86.03;101300.88;6341858;23;20034;-80
2021/09/20 09:12:26;;;;;;;4.32;1.42;;;;;;;14.05;86.33;101303.25;6378294;23;20016;-79
2021/09/20 09:14:59;;;;;;;4.93;1.35;;;;;;;13.99;85.42;101304.34;6341296;23;20048;-80
2021/09/20 09:17:32;;;;;;;4.28;1.48;;;;;;;14.31;84.93;101306.63;6378437;23;20341;-79
2021/09/20 09:20:19;;;;;;;2.78;1.38;;;;;;;14.12;86.36;101304.72;6390907;23;19997;-80
2021/09/20 09:22:58;;;;;;;2.75;1.30;;;;;;;14.67;83.99;101299.91;6340293;23;20100;-79
2021/09/20 09:25:41;;;;;;;3.70;1.70;;;;;;;14.51;85.22;101304.06;6377517;23;20001;-80
2021/09/20 09:28:24;;;;;;;3.25;1.50;;;;;;;14.74;82.66;101303.13;6373126;23;19998;-80
2021/09/20 09:30:57;;;;;;;2.28;1.23;;;;;;;14.62;83.75;101306.25;6341458;23;20012;-80
2021/09/20 09:33:39;;;;;;;2.47;1.10;;;;;;;14.39;81.61;101299.28;6378110;23;19998;-79
2021/09/20 09:36:13;;;;;;;3.70;1.20;;;;;;;14.48;81.85;101305.94;6378164;23;20010;-80
2021/09/20 09:39:01;;;;;;;4.63;1.02;;;;;;;14.84;79.33;101303.53;6378225;23;20005;-80
2021/09/20 09:41:37;;;;;;;1.80;1.00;;;;;;;14.55;80.94;101304.78;6377922;23;19994;-80
2021/09/20 09:44:11;;;;;;;2.20;1.15;;;;;;;14.69;81.82;101302.44;6377252;23;20327;-80
2021/09/20 09:46:45;;;;;;;1.98;1.20;;;;;;;14.99;80.13;101297.63;6377481;23;20496;-80
2021/09/20 09:49:18;;;;;;;3.60;1.42;;;;;;;14.59;80.51;101309.84;6377978;23;20005;-80
2021/09/20 09:52:04;;;;;;;2.15;1.23;;;;;;;14.74;79.40;101311.03;6377458;23;20036;-79
2021/09/20 09:54:40;;;;;;;2.47;1.38;;;;;;;14.98;80.83;101310.88;6341388;23;20005;-80
2021/09/20 09:57:11;;;;;;;;;;;;;;;15.20;82.11;101314.31;6379264;23;19997;-80
2021/09/20 09:59:42;;;;;;;3.00;1.30;;;;;;;15.11;82.12;101312.91;6377783;23;19911;-80
2021/09/20 10:02:27;;;;;;;1.80;0.98;;;;;;;15.23;78.91;101304.50;6376293;23;20012;-80
2021/09/20 10:05:08;;;;;;;2.78;1.40;;;;;;;15.72;79.04;101306.72;6339460;23;20092;-80
2021/09/20 10:07:41;;;;;;;2.25;1.27;;;;;;;15.80;77.86;101309.88;6377105;23;20084;-80
2021/09/20 10:10:23;;;;;;;3.15;1.25;;;;;;;16.07;77.39;101303.31;6375613;23;20272;-79
2021/09/20 10:12:56;;;;;;;2.13;1.20;;;;;;;16.26;75.99;101298.94;6377717;23;20006;-79
2021/09/20 10:15:28;;;;;;;4.10;1.70;;;;;;;16.18;75.94;101301.03;6340874;23;20013;-80
2021/09/20 10:17:59;;;;;;;3.53;1.30;;;;;;;16.07;76.13;101295.41;6377564;23;20052;-80
2021/09/20 10:20:30;;;;;;;3.08;1.20;;;;;;;15.80;75.98;101295.81;6341248;23;20009;-80
2021/09/20 10:23:00;;;;;;;2.28;1.20;;;;;;;16.20;75.86;101293.91;6377247;23;19998;-80
2021/09/20 10:25:31;;;;;;;2.42;1.40;;;;;;;16.12;75.41;101298.72;6376992;23;20001;-79
2021/09/20 10:28:04;;;;;;;3.22;1.50;;;;;;;16.15;74.24;101298.56;6341191;23;20338;-79
2021/09/20 10:30:35;;;;;;;2.60;1.40;;;;;;;16.13;74.53;101295.13;6340577;23;20464;-80
2021/09/20 10:33:08;;;;;;;2.88;1.40;;;;;;;15.95;72.76;101293.34;6376599;23;20002;-79
2021/09/20 10:35:41;;;;;;;1.88;1.20;;;;;;;15.77;76.05;101293.34;6340204;23;20009;-80
2021/09/20 10:38:20;;;;;;;1.65;1.20;;;;;;;15.24;76.53;101303.59;6341254;23;20002;-80
2021/09/20 10:41:13;;;;;;;2.60;1.13;;;;;;;15.00;76.91;101299.34;6377049;23;20016;-80
2021/09/20 10:43:59;;;;;;;2.83;1.30;;;;;;;14.67;78.04;101299.03;6340347;23;20080;-81
2021/09/20 10:46:34;;;;;;;2.10;1.20;;;;;;;14.62;78.84;101295.72;6377086;23;20370;-80
2021/09/20 10:49:25;;;;;;;3.25;1.20;;;;;;;14.56;79.72;101302.09;6340885;23;20005;-80
2021/09/20 10:52:05;;;;;;;4.65;1.42;;;;;;;14.56;80.28;101301.25;6377650;23;20529;-80
2021/09/20 10:54:35;;;;;;;2.60;1.30;;;;;;;14.40;81.87;101298.34;6375965;23;20052;-80
2021/09/20 10:57:14;;;;;;;2.13;1.17;;;;;;;14.61;80.16;101312.44;6377189;23;20002;-80
2021/09/20 10:59:45;;;;;;;2.60;1.20;;;;;;;14.62;80.49;101293.94;6376715;23;20024;-79
2021/09/20 11:02:18;;;;;;;3.53;1.40;;;;;;;14.92;79.05;101295.31;6340048;23;20124;-79
2021/09/20 11:05:04;;;;;;;3.22;1.30;;;;;;;14.92;78.84;101283.03;6376202;23;20009;-80
2021/09/20 11:07:49;;;;;;;2.53;1.50;;;;;;;15.29;76.27;101288.47;6376644;23;20430;-80
2021/09/20 11:10:37;;;;;;;2.47;1.30;;;;;;;15.75;77.25;101279.38;6340303;23;20013;-79
2021/09/20 11:13:08;;;;;;;2.40;1.40;;;;;;;15.71;78.15;101281.28;6376744;23;20005;-79
2021/09/20 11:15:41;;;;;;;2.80;1.20;;;;;;;15.77;74.93;101282.78;6375980;23;20040;-80
2021/09/20 11:18:34;;;;;;;2.92;1.15;;;;;;;15.94;73.98;101273.19;6376860;23;20442;-80
2021/09/20 11:21:06;;;;;;;2.55;1.23;;;;;;;15.72;75.40;101277.72;6377214;23;20001;-79
2021/09/20 11:23:40;;;;;;;1.90;1.05;;;;;;;16.04;73.75;101276.25;6376162;23;20020;-79
2021/09/20 11:26:19;;;;;;;2.30;1.15;;;;;;;16.63;74.23;101277.78;6375635;23;20382;-79
2021/09/20 11:28:53;;;;;;;2.30;1.10;;;;;;;15.79;73.43;101276.53;6389378;23;20016;-80
2021/09/20 11:31:28;;;;;;;2.42;1.40;;;;;;;15.77;73.55;101278.38;6374971;23;20009;-80
2021/09/20 11:33:58;;;;;;;2.53;1.15;;;;;;;15.90;73.51;101279.50;6375160;23;20001;-80
2021/09/20 11:36:35;;;;;;;2.22;1.08;;;;;;;15.65;71.64;101276.28;6376294;23;20405;-80
2021/09/20 11:39:12;;;;;;;2.40;1.10;;;;;;;15.78;71.90;101273.94;6374850;23;20008;-79
2021/09/20 11:41:46;;;;;;;2.97;1.45;;;;;;;15.75;70.88;101272.34;6375174;23;20012;-80